createdAt,value
2022-11-17T00:00:42.691Z,12.50
2022-11-17T00:03:14.920Z,12.60
2022-11-17T00:05:42.638Z,12.60
2022-11-17T00:08:09.875Z,12.70
2022-11-17T00:10:36.576Z,12.80
2022-11-17T00:13:21.866Z,12.80
2022-11-17T00:15:48.661Z,12.70
2022-11-17T00:18:34.357Z,12.60
2022-11-17T00:21:19.512Z,12.50
2022-11-17T00:23:50.052Z,12.40
2022-11-17T00:26:25.633Z,12.30
2022-11-17T00:29:01.474Z,12.30
2022-11-17T00:31:48.697Z,12.20
2022-11-17T00:34:21.262Z,12.20
2022-11-17T00:36:53.099Z,12.10
2022-11-17T00:39:21.747Z,12.20
2022-11-17T00:41:49.507Z,12.20
2022-11-17T00:44:16.600Z,12.30
2022-11-17T00:46:43.834Z,12.30
2022-11-17T00:49:11.874Z,12.30
2022-11-17T00:51:39.367Z,12.40
2022-11-17T00:54:08.056Z,12.40
2022-11-17T00:56:35.174Z,12.40
2022-11-17T00:59:02.102Z,12.40
2022-11-17T01:01:30.150Z,12.40
2022-11-17T01:04:04.855Z,12.30
2022-11-17T01:06:37.483Z,12.10
2022-11-17T01:09:13.544Z,11.90
2022-11-17T01:11:50.008Z,11.80
2022-11-17T01:14:23.699Z,12.80
2022-11-17T01:16:50.609Z,11.60
2022-11-17T01:19:18.830Z,11.60
2022-11-17T01:21:45.676Z,11.60
2022-11-17T01:24:15.176Z,11.50
2022-11-17T01:26:43.758Z,11.40
2022-11-17T01:29:14.078Z,11.40
2022-11-17T01:31:43.586Z,11.40
2022-11-17T01:34:11.032Z,11.50
2022-11-17T01:36:59.398Z,11.40
2022-11-17T01:39:28.021Z,11.40
2022-11-17T01:41:55.265Z,11.40
2022-11-17T01:45:18.459Z,11.40
2022-11-17T01:47:51.749Z,11.40
2022-11-17T01:50:33.839Z,11.40
2022-11-17T01:53:04.504Z,11.40
2022-11-17T01:55:39.084Z,11.40
2022-11-17T01:58:12.433Z,11.40
2022-11-17T02:00:39.858Z,11.30
2022-11-17T02:03:07.309Z,11.30
2022-11-17T02:05:34.118Z,11.40
2022-11-17T02:08:04.806Z,11.30
2022-11-17T02:10:32.777Z,12.70
2022-11-17T02:13:03.677Z,11.30
2022-11-17T02:15:31.276Z,11.30
2022-11-17T02:17:58.915Z,11.30
2022-11-17T02:20:25.589Z,11.40
2022-11-17T02:22:52.869Z,11.40
2022-11-17T02:25:34.781Z,11.40
2022-11-17T02:28:22.090Z,11.40
2022-11-17T02:30:51.834Z,11.40
2022-11-17T02:33:47.422Z,11.50
2022-11-17T02:36:22.781Z,11.50
2022-11-17T02:39:19.884Z,11.50
2022-11-17T02:42:04.338Z,11.60
2022-11-17T02:44:43.034Z,11.70
2022-11-17T02:47:17.113Z,11.70
2022-11-17T02:49:49.496Z,11.80
2022-11-17T02:52:17.884Z,11.80
2022-11-17T02:54:45.053Z,11.80
2022-11-17T02:57:33.193Z,11.90
2022-11-17T03:00:06.189Z,12.00
2022-11-17T03:02:54.886Z,12.00
2022-11-17T03:05:54.576Z,12.00
2022-11-17T03:08:33.204Z,12.00
2022-11-17T03:11:06.697Z,12.10
2022-11-17T03:13:44.506Z,12.10
2022-11-17T03:16:47.800Z,12.00
2022-11-17T03:19:33.413Z,12.10
2022-11-17T03:22:20.953Z,12.20
2022-11-17T03:24:51.809Z,12.10
2022-11-17T03:27:24.673Z,12.10
2022-11-17T03:29:55.670Z,12.00
2022-11-17T03:32:25.237Z,12.00
2022-11-17T03:34:57.052Z,12.00
2022-11-17T03:37:26.647Z,12.00
2022-11-17T03:39:58.160Z,12.10
2022-11-17T03:42:29.096Z,12.10
2022-11-17T03:45:17.587Z,12.10
2022-11-17T03:47:45.585Z,12.10
2022-11-17T03:50:24.810Z,12.10
2022-11-17T03:52:52.383Z,12.10
2022-11-17T03:55:19.355Z,12.10
2022-11-17T03:58:03.315Z,12.10
2022-11-17T04:00:31.864Z,12.10
2022-11-17T04:02:59.706Z,12.10
2022-11-17T04:05:27.301Z,12.10
2022-11-17T04:07:54.042Z,12.20
2022-11-17T04:10:23.646Z,12.20
2022-11-17T04:13:09.501Z,12.30
2022-11-17T04:15:55.105Z,12.30
2022-11-17T04:18:23.014Z,12.30
2022-11-17T04:20:54.846Z,12.30
2022-11-17T04:23:22.988Z,12.30
2022-11-17T04:26:10.847Z,12.30
2022-11-17T04:28:41.752Z,12.20
2022-11-17T04:31:18.951Z,12.10
2022-11-17T04:33:47.014Z,12.10
2022-11-17T04:36:20.566Z,12.10
2022-11-17T04:38:51.148Z,12.10
2022-11-17T04:41:38.064Z,12.10
2022-11-17T04:44:08.026Z,12.00
2022-11-17T04:46:36.188Z,12.00
2022-11-17T04:49:04.034Z,12.10
2022-11-17T04:51:31.882Z,12.00
2022-11-17T04:53:58.872Z,12.00
2022-11-17T04:56:26.184Z,12.00
2022-11-17T04:58:53.787Z,12.10
2022-11-17T05:01:22.382Z,12.00
2022-11-17T05:03:59.898Z,12.00
2022-11-17T05:06:32.583Z,12.10
2022-11-17T05:09:01.561Z,12.10
2022-11-17T05:11:48.740Z,12.10
2022-11-17T05:14:18.316Z,12.10
2022-11-17T05:17:09.076Z,12.10
2022-11-17T05:19:39.618Z,12.10
2022-11-17T05:22:27.947Z,12.10
2022-11-17T05:24:55.104Z,12.20
2022-11-17T05:27:23.136Z,12.20
2022-11-17T05:29:49.973Z,12.30
2022-11-17T05:32:16.682Z,12.20
2022-11-17T05:34:43.478Z,12.20
2022-11-17T05:37:10.309Z,12.20
2022-11-17T05:39:37.045Z,12.20
2022-11-17T05:42:04.287Z,12.20
2022-11-17T05:44:31.100Z,12.20
2022-11-17T05:46:57.874Z,12.30
2022-11-17T05:49:25.072Z,12.20
2022-11-17T05:51:53.141Z,12.20
2022-11-17T05:54:20.675Z,12.20
2022-11-17T05:56:55.887Z,12.20
2022-11-17T05:59:35.866Z,12.30
2022-11-17T06:02:31.374Z,12.30
2022-11-17T06:04:58.098Z,12.20
2022-11-17T06:07:25.105Z,12.30
2022-11-17T06:09:52.447Z,12.20
2022-11-17T06:12:19.225Z,12.20
2022-11-17T06:14:45.999Z,13.50
2022-11-17T06:17:22.193Z,12.20
2022-11-17T06:19:55.069Z,12.20
2022-11-17T06:22:22.695Z,12.20
2022-11-17T06:24:49.430Z,12.30
2022-11-17T06:27:17.190Z,12.20
2022-11-17T06:29:47.638Z,12.20
2022-11-17T06:32:15.985Z,12.10
2022-11-17T06:34:50.454Z,12.10
2022-11-17T06:37:20.731Z,12.20
2022-11-17T06:39:47.490Z,12.20
2022-11-17T06:42:14.225Z,12.20
2022-11-17T06:44:41.474Z,12.10
2022-11-17T06:47:08.231Z,12.10
2022-11-17T06:49:35.017Z,12.10
2022-11-17T06:52:02.182Z,12.10
2022-11-17T06:54:29.033Z,12.10
2022-11-17T06:56:55.784Z,12.10
2022-11-17T06:59:22.618Z,12.10
2022-11-17T07:01:49.379Z,12.20
2022-11-17T07:04:16.174Z,12.30
2022-11-17T07:06:42.928Z,12.40
2022-11-17T07:09:09.823Z,12.40
2022-11-17T07:11:37.028Z,12.50
2022-11-17T07:14:04.303Z,12.50
2022-11-17T07:16:32.640Z,12.60
2022-11-17T07:19:03.330Z,12.70
2022-11-17T07:21:33.146Z,12.70
2022-11-17T07:24:00.044Z,12.70
2022-11-17T07:26:26.805Z,12.80
2022-11-17T07:28:53.618Z,12.80
2022-11-17T07:31:20.856Z,12.80
2022-11-17T07:33:47.592Z,12.80
2022-11-17T07:36:17.219Z,13.00
2022-11-17T07:38:44.092Z,13.10
2022-11-17T07:41:14.128Z,13.10
2022-11-17T07:43:41.050Z,13.00
2022-11-17T07:46:12.116Z,13.00
2022-11-17T07:48:40.415Z,13.00
2022-11-17T07:51:07.404Z,13.00
2022-11-17T07:53:35.446Z,13.10
2022-11-17T07:56:10.420Z,13.10
2022-11-17T07:58:38.266Z,13.20
2022-11-17T08:01:11.064Z,13.30
2022-11-17T08:03:38.283Z,13.40
2022-11-17T08:06:06.664Z,13.50
2022-11-17T08:08:34.462Z,13.50
2022-11-17T08:11:03.856Z,13.50
2022-11-17T08:13:31.295Z,13.50
2022-11-17T08:16:01.834Z,13.50
2022-11-17T08:18:29.747Z,13.50
2022-11-17T08:21:04.864Z,13.50
2022-11-17T08:23:33.054Z,13.50
2022-11-17T08:26:01.521Z,13.50
2022-11-17T08:28:28.392Z,13.50
2022-11-17T08:30:55.909Z,13.60
2022-11-17T08:33:22.704Z,13.60
2022-11-17T08:35:49.444Z,13.80
2022-11-17T08:38:16.655Z,13.80
2022-11-17T08:40:44.357Z,13.80
2022-11-17T08:43:11.112Z,13.90
2022-11-17T08:45:38.280Z,14.00
2022-11-17T08:48:07.521Z,14.00
2022-11-17T08:50:35.531Z,14.00
2022-11-17T08:53:02.330Z,14.10
2022-11-17T08:55:29.571Z,14.10
2022-11-17T08:57:56.477Z,14.10
2022-11-17T09:00:24.294Z,14.20
2022-11-17T09:02:51.149Z,14.30
2022-11-17T09:05:18.086Z,14.40
2022-11-17T09:07:45.100Z,14.50
2022-11-17T09:10:12.266Z,14.70
2022-11-17T09:12:39.021Z,14.70
2022-11-17T09:15:06.564Z,14.70
2022-11-17T09:17:33.526Z,14.70
2022-11-17T09:20:00.891Z,14.70
2022-11-17T09:22:28.180Z,14.80
2022-11-17T09:24:55.341Z,14.90
2022-11-17T09:27:22.080Z,15.10
2022-11-17T09:29:48.920Z,15.20
2022-11-17T09:32:16.940Z,15.20
2022-11-17T09:34:44.363Z,15.40
2022-11-17T09:37:11.197Z,15.50
2022-11-17T09:39:38.419Z,15.60
2022-11-17T09:42:05.928Z,15.60
2022-11-17T09:44:39.913Z,15.50
2022-11-17T09:47:41.325Z,15.50
2022-11-17T09:50:17.578Z,15.40
2022-11-17T09:53:20.990Z,15.40
2022-11-17T09:55:51.435Z,15.40
2022-11-17T09:58:37.804Z,15.30
2022-11-17T10:01:05.433Z,15.30
2022-11-17T10:03:40.073Z,15.20
2022-11-17T10:06:23.993Z,15.40
2022-11-17T10:09:02.785Z,15.60
2022-11-17T10:11:32.802Z,15.80
2022-11-17T10:14:08.763Z,15.90
2022-11-17T10:16:36.535Z,16.00
2022-11-17T10:19:20.743Z,15.90
2022-11-17T10:22:12.760Z,15.90
2022-11-17T10:24:52.203Z,15.80
2022-11-17T10:27:28.494Z,15.70
2022-11-17T10:30:02.659Z,15.60
2022-11-17T10:32:38.565Z,15.50
2022-11-17T10:35:16.780Z,15.50
2022-11-17T10:37:59.101Z,15.60
2022-11-17T10:40:53.712Z,15.80
2022-11-17T10:43:32.428Z,15.90
2022-11-17T10:46:06.265Z,15.90
2022-11-17T10:48:35.953Z,15.90
2022-11-17T10:51:16.928Z,16.00
2022-11-17T10:53:46.760Z,15.90
2022-11-17T10:56:19.001Z,15.90
2022-11-17T10:59:04.401Z,15.80
2022-11-17T11:01:42.897Z,15.80
2022-11-17T11:04:29.736Z,15.80
2022-11-17T11:07:22.193Z,15.90
2022-11-17T11:10:04.607Z,15.90
2022-11-17T11:12:47.533Z,15.90
2022-11-17T11:15:20.884Z,15.60
2022-11-17T11:17:48.067Z,15.80
2022-11-17T11:20:16.996Z,15.70
2022-11-17T11:22:55.837Z,15.70
2022-11-17T11:25:45.055Z,15.70
2022-11-17T11:28:30.834Z,15.70
2022-11-17T11:31:21.520Z,15.60
2022-11-17T11:33:53.977Z,15.70
2022-11-17T11:36:50.042Z,15.70
2022-11-17T11:39:31.974Z,15.70
2022-11-17T11:42:16.510Z,15.60
2022-11-17T11:44:52.145Z,15.60
2022-11-17T11:47:28.138Z,15.60
2022-11-17T11:50:18.106Z,15.60
2022-11-17T11:52:50.255Z,15.60
2022-11-17T11:55:29.495Z,15.60
2022-11-17T11:58:05.603Z,15.50
2022-11-17T12:00:34.312Z,15.50
2022-11-17T12:03:33.859Z,15.60
2022-11-17T12:06:40.759Z,15.50
2022-11-17T12:09:34.527Z,15.50
2022-11-17T12:12:07.929Z,15.50
2022-11-17T12:14:37.320Z,15.50
2022-11-17T12:17:25.999Z,15.50
2022-11-17T12:19:57.472Z,15.50
2022-11-17T12:22:32.157Z,15.50
2022-11-17T12:25:18.557Z,15.70
2022-11-17T12:27:51.035Z,15.80
2022-11-17T12:30:33.661Z,15.90
2022-11-17T12:33:04.654Z,15.80
2022-11-17T12:35:39.699Z,15.90
2022-11-17T12:38:15.553Z,15.90
2022-11-17T12:40:49.103Z,15.90
2022-11-17T12:43:15.816Z,15.80
2022-11-17T12:46:00.813Z,15.70
2022-11-17T12:48:39.432Z,15.70
2022-11-17T12:51:17.337Z,15.50
2022-11-17T12:54:37.585Z,15.50
2022-11-17T12:57:13.355Z,15.70
2022-11-17T12:59:51.983Z,15.60
2022-11-17T13:02:27.604Z,15.60
2022-11-17T13:05:07.758Z,15.50
2022-11-17T13:07:34.824Z,15.60
2022-11-17T13:10:02.769Z,15.80
2022-11-17T13:12:34.734Z,15.90
2022-11-17T13:15:04.560Z,16.00
2022-11-17T13:17:42.835Z,16.00
2022-11-17T13:20:34.028Z,15.90
2022-11-17T13:23:07.013Z,15.80
2022-11-17T13:25:36.028Z,15.80
2022-11-17T13:28:05.289Z,15.70
2022-11-17T13:30:33.209Z,15.70
2022-11-17T13:33:03.047Z,15.70
2022-11-17T13:35:36.433Z,15.70
2022-11-17T13:38:12.437Z,15.60
2022-11-17T13:40:41.574Z,15.60
2022-11-17T13:43:14.682Z,15.50
2022-11-17T13:45:43.384Z,15.50
2022-11-17T13:48:37.747Z,15.30
2022-11-17T13:51:20.357Z,15.30
2022-11-17T13:53:53.014Z,15.20
2022-11-17T13:56:36.541Z,15.10
2022-11-17T13:59:16.587Z,15.20
2022-11-17T14:01:44.002Z,15.10
2022-11-17T14:04:22.938Z,15.00
2022-11-17T14:06:52.792Z,15.00
2022-11-17T14:09:20.047Z,15.00
2022-11-17T14:11:46.897Z,14.90
2022-11-17T14:14:18.237Z,14.80
2022-11-17T14:16:46.090Z,14.80
2022-11-17T14:19:15.964Z,14.80
2022-11-17T14:22:03.959Z,14.80
2022-11-17T14:24:32.638Z,14.80
2022-11-17T14:27:00.013Z,14.80
2022-11-17T14:29:30.554Z,14.60
2022-11-17T14:31:57.315Z,14.50
2022-11-17T14:34:24.511Z,14.40
2022-11-17T14:36:54.495Z,14.50
2022-11-17T14:39:21.973Z,14.40
2022-11-17T14:41:50.292Z,14.40
2022-11-17T14:44:17.241Z,14.40
2022-11-17T14:46:43.993Z,14.30
2022-11-17T14:49:11.295Z,14.30
2022-11-17T14:51:38.564Z,14.20
2022-11-17T14:54:05.383Z,14.30
2022-11-17T14:56:32.505Z,14.30
2022-11-17T14:59:00.408Z,14.20
2022-11-17T15:01:34.606Z,14.10
2022-11-17T15:04:20.614Z,14.00
2022-11-17T15:06:48.213Z,13.90
2022-11-17T15:09:17.645Z,13.80
2022-11-17T15:11:44.422Z,13.80
2022-11-17T15:14:11.343Z,13.70
2022-11-17T15:16:38.232Z,13.70
2022-11-17T15:19:05.099Z,13.60
2022-11-17T15:21:31.937Z,13.50
2022-11-17T15:23:58.846Z,13.50
2022-11-17T15:26:25.632Z,13.40
2022-11-17T15:28:52.380Z,13.40
2022-11-17T15:31:20.961Z,13.40
2022-11-17T15:33:48.725Z,13.30
2022-11-17T15:36:17.711Z,13.40
2022-11-17T15:38:45.403Z,13.40
2022-11-17T15:41:14.176Z,13.50
2022-11-17T15:43:43.145Z,13.50
2022-11-17T15:46:15.810Z,13.50
2022-11-17T15:48:44.266Z,13.50
2022-11-17T15:51:25.674Z,13.40
2022-11-17T15:53:56.332Z,13.40
2022-11-17T15:56:25.267Z,13.40
2022-11-17T15:58:57.839Z,13.30
2022-11-17T16:01:27.788Z,13.30
2022-11-17T16:04:09.410Z,13.20
2022-11-17T16:06:38.809Z,13.20
2022-11-17T16:09:08.808Z,13.10
2022-11-17T16:11:36.585Z,13.00
2022-11-17T16:14:03.948Z,13.00
2022-11-17T16:16:34.236Z,13.10
2022-11-17T16:19:01.116Z,13.10
2022-11-17T16:21:28.258Z,13.20
2022-11-17T16:23:57.221Z,13.20
2022-11-17T16:26:25.737Z,13.20
2022-11-17T16:28:59.722Z,13.20
2022-11-17T16:31:29.961Z,13.20
2022-11-17T16:34:02.832Z,13.20
2022-11-17T16:36:36.230Z,13.20
2022-11-17T16:39:06.580Z,13.10
2022-11-17T16:41:39.408Z,13.10
2022-11-17T16:44:09.146Z,13.20
2022-11-17T16:46:36.208Z,13.20
2022-11-17T16:49:06.249Z,13.10
2022-11-17T16:51:33.766Z,13.10
2022-11-17T16:54:03.649Z,13.20
2022-11-17T16:56:30.988Z,13.10
2022-11-17T16:58:58.858Z,13.10
2022-11-17T17:01:30.278Z,13.10
2022-11-17T17:03:58.962Z,13.00
2022-11-17T17:06:27.142Z,13.00
2022-11-17T17:08:58.899Z,12.90
2022-11-17T17:11:27.959Z,12.90
2022-11-17T17:13:56.540Z,12.80
2022-11-17T17:16:23.587Z,12.80
2022-11-17T17:18:56.264Z,12.70
2022-11-17T17:21:23.846Z,12.70
2022-11-17T17:23:51.027Z,12.70
2022-11-17T17:26:19.612Z,12.60
2022-11-17T17:28:48.532Z,12.60
2022-11-17T17:31:21.360Z,12.60
2022-11-17T17:33:50.452Z,12.60
2022-11-17T17:36:22.911Z,12.50
2022-11-17T17:38:55.396Z,12.50
2022-11-17T17:41:25.521Z,12.50
2022-11-17T17:43:58.252Z,12.50
2022-11-17T17:46:25.972Z,12.60
2022-11-17T17:48:52.939Z,12.50
2022-11-17T17:51:23.939Z,12.50
2022-11-17T17:53:51.738Z,12.50
2022-11-17T17:56:19.838Z,12.50
2022-11-17T17:58:53.392Z,12.60
2022-11-17T18:01:33.043Z,12.40
2022-11-17T18:04:04.829Z,12.50
2022-11-17T18:06:42.214Z,12.50
2022-11-17T18:09:10.809Z,12.50
2022-11-17T18:11:40.652Z,12.50
2022-11-17T18:14:10.016Z,12.60
2022-11-17T18:16:36.808Z,12.70
2022-11-17T18:19:06.933Z,12.70
2022-11-17T18:21:34.226Z,12.70
2022-11-17T18:24:02.758Z,12.70
2022-11-17T18:26:35.395Z,12.70
2022-11-17T18:29:05.972Z,12.60
2022-11-17T18:31:34.613Z,12.60
2022-11-17T18:34:04.882Z,12.50
2022-11-17T18:36:32.185Z,12.50
2022-11-17T18:38:59.109Z,12.40
2022-11-17T18:41:27.391Z,12.30
2022-11-17T18:43:55.078Z,12.30
2022-11-17T18:46:24.613Z,12.20
2022-11-17T18:48:52.904Z,12.10
2022-11-17T18:51:21.968Z,12.10
2022-11-17T18:53:49.979Z,12.00
2022-11-17T18:56:18.976Z,11.90
2022-11-17T18:58:45.917Z,11.90
2022-11-17T19:01:15.303Z,11.80
2022-11-17T19:03:43.944Z,11.80
2022-11-17T19:06:12.196Z,11.80
2022-11-17T19:08:39.784Z,11.90
2022-11-17T19:11:08.920Z,11.90
2022-11-17T19:13:37.899Z,12.00
2022-11-17T19:16:06.267Z,12.00
2022-11-17T19:18:33.381Z,12.10
2022-11-17T19:21:08.837Z,12.00
2022-11-17T19:23:37.483Z,12.00
2022-11-17T19:26:12.482Z,12.00
2022-11-17T19:28:39.521Z,12.00
2022-11-17T19:31:12.207Z,12.00
2022-11-17T19:33:40.954Z,12.10
2022-11-17T19:36:20.267Z,12.10
2022-11-17T19:38:52.273Z,12.10
2022-11-17T19:41:22.413Z,12.10
2022-11-17T19:43:53.254Z,12.10
2022-11-17T19:46:20.084Z,12.10
2022-11-17T19:48:46.839Z,12.00
2022-11-17T19:51:24.920Z,12.10
2022-11-17T19:53:54.176Z,12.00
2022-11-17T19:56:21.842Z,12.00
2022-11-17T19:58:49.837Z,11.90
2022-11-17T20:01:17.871Z,11.80
2022-11-17T20:03:46.296Z,11.80
2022-11-17T20:06:15.893Z,11.70
2022-11-17T20:08:42.946Z,11.70
2022-11-17T20:11:16.724Z,11.60
2022-11-17T20:13:44.579Z,11.70
2022-11-17T20:16:17.190Z,11.70
2022-11-17T20:18:45.374Z,11.60
2022-11-17T20:21:14.079Z,11.60
2022-11-17T20:23:41.382Z,11.60
2022-11-17T20:26:14.635Z,11.70
2022-11-17T20:28:42.121Z,11.60
2022-11-17T20:31:10.283Z,11.50
2022-11-17T20:33:39.456Z,11.50
2022-11-17T20:36:08.098Z,11.50
2022-11-17T20:38:36.160Z,11.50
2022-11-17T20:41:04.642Z,11.40
2022-11-17T20:43:32.234Z,11.40
2022-11-17T20:45:59.498Z,11.50
2022-11-17T20:48:27.796Z,11.50
2022-11-17T20:50:56.254Z,11.60
2022-11-17T20:53:23.433Z,11.70
2022-11-17T20:55:50.252Z,11.80
2022-11-17T20:58:17.153Z,11.80
2022-11-17T21:00:44.060Z,11.90
2022-11-17T21:03:10.929Z,11.90
2022-11-17T21:05:37.821Z,12.00
2022-11-17T21:08:05.288Z,11.90
2022-11-17T21:10:32.564Z,11.90
2022-11-17T21:12:59.577Z,11.90
2022-11-17T21:15:26.693Z,11.90
2022-11-17T21:18:11.922Z,11.80
2022-11-17T21:20:39.180Z,11.80
2022-11-17T21:23:05.989Z,11.80
2022-11-17T21:25:35.789Z,11.70
2022-11-17T21:28:03.226Z,11.80
2022-11-17T21:30:30.525Z,11.80
2022-11-17T21:32:57.691Z,11.80
2022-11-17T21:35:24.619Z,11.80
2022-11-17T21:37:51.957Z,11.90
2022-11-17T21:40:19.113Z,11.90
2022-11-17T21:42:46.119Z,11.90
2022-11-17T21:45:13.160Z,12.00
2022-11-17T21:47:39.957Z,12.00
2022-11-17T21:50:07.553Z,12.00
2022-11-17T21:52:34.780Z,12.00
2022-11-17T21:55:01.694Z,12.00
2022-11-17T21:57:28.439Z,12.00
2022-11-17T21:59:55.197Z,12.00
2022-11-17T22:02:22.277Z,12.00
2022-11-17T22:04:49.024Z,12.00
2022-11-17T22:07:15.815Z,11.90
2022-11-17T22:09:43.052Z,11.90
2022-11-17T22:12:10.326Z,11.90
2022-11-17T22:14:37.083Z,11.90
2022-11-17T22:17:03.910Z,12.00
2022-11-17T22:19:30.725Z,12.10
2022-11-17T22:21:57.512Z,12.00
2022-11-17T22:24:24.370Z,12.10
2022-11-17T22:26:51.701Z,12.10
2022-11-17T22:29:20.740Z,12.10
2022-11-17T22:31:48.954Z,12.10
2022-11-17T22:34:17.190Z,12.10
2022-11-17T22:36:44.075Z,12.20
2022-11-17T22:39:10.943Z,12.20
2022-11-17T22:41:38.280Z,12.30
2022-11-17T22:44:06.395Z,12.40
2022-11-17T22:46:34.865Z,12.30
2022-11-17T22:49:02.251Z,12.40
2022-11-17T22:51:47.555Z,12.40
2022-11-17T22:54:14.423Z,12.40
2022-11-17T22:56:41.671Z,12.50
2022-11-17T22:59:08.925Z,12.50
2022-11-17T23:01:35.794Z,12.40
2022-11-17T23:04:03.528Z,12.40
2022-11-17T23:06:30.380Z,12.30
2022-11-17T23:08:58.327Z,12.20
2022-11-17T23:11:41.595Z,12.20
2022-11-17T23:14:12.209Z,12.20
2022-11-17T23:16:39.598Z,12.20
2022-11-17T23:19:06.853Z,12.10
2022-11-17T23:21:33.850Z,12.20
2022-11-17T23:24:00.582Z,12.20
2022-11-17T23:26:27.438Z,12.00
2022-11-17T23:28:54.380Z,11.90
2022-11-17T23:31:21.384Z,11.90
2022-11-17T23:33:48.936Z,12.00
2022-11-17T23:36:17.647Z,12.00
2022-11-17T23:38:44.751Z,12.00
2022-11-17T23:41:14.012Z,12.00
2022-11-17T23:43:40.888Z,12.00
2022-11-17T23:46:15.925Z,12.10
2022-11-17T23:48:43.605Z,12.10
2022-11-17T23:51:15.921Z,12.20
2022-11-17T23:53:43.158Z,12.20
2022-11-17T23:56:11.185Z,12.30
2022-11-17T23:58:38.643Z,12.30
